Campo Viera, Argentina
Current Conditions -  °F | °C
As of 8:00 PM on Wednesday 26 Nov 2014 (Local Time) from SARP Reporting Station
Few Clouds Few Clouds  
Wind Chill: 81°   Ceiling: Unl
Heat Index: 83°   Visibility: 6mi
Dew Point: 68°   Wind: 8mph
Humidity: 65%   Direction: 230°SW
Pressure: 29.8"   Gusts: NA
Location:  27.38°S, 55.03°W
Report Text: SARP 262300Z 23007KT 9999 FEW035 27/20 Q1009
Loading
Personal Weather Stations






























Interactive Weather Map New forecast layout! Learn more

10-Day Weather Forecast

Advertisements
Track Severe Weather on mobile